sensor_id;sensor_type;location;lat;lon;timestamp;P1;durP1;ratioP1;P2;durP2;ratioP2
13879;SDS011;7010;48.200;16.332;2023-03-21T00:01:13;4.97;;;4.55;;
13879;SDS011;7010;48.200;16.332;2023-03-21T00:03:43;5.43;;;4.90;;
13879;SDS011;7010;48.200;16.332;2023-03-21T00:06:12;5.63;;;5.07;;
13879;SDS011;7010;48.200;16.332;2023-03-21T00:08:40;4.50;;;4.20;;
13879;SDS011;7010;48.200;16.332;2023-03-21T00:11:10;10.35;;;4.97;;
13879;SDS011;7010;48.200;16.332;2023-03-21T00:13:39;6.53;;;5.25;;
13879;SDS011;7010;48.200;16.332;2023-03-21T00:16:09;6.10;;;5.30;;
13879;SDS011;7010;48.200;16.332;2023-03-21T00:18:55;5.28;;;4.88;;
13879;SDS011;7010;48.200;16.332;2023-03-21T00:21:24;18.10;;;5.70;;
13879;SDS011;7010;48.200;16.332;2023-03-21T00:24:18;4.70;;;4.30;;
13879;SDS011;7010;48.200;16.332;2023-03-21T00:26:48;5.28;;;4.85;;
13879;SDS011;7010;48.200;16.332;2023-03-21T00:29:17;4.85;;;4.40;;
13879;SDS011;7010;48.200;16.332;2023-03-21T00:31:45;5.43;;;5.00;;
13879;SDS011;7010;48.200;16.332;2023-03-21T00:34:15;5.95;;;5.20;;
13879;SDS011;7010;48.200;16.332;2023-03-21T00:36:57;7.28;;;5.63;;
13879;SDS011;7010;48.200;16.332;2023-03-21T00:39:27;6.57;;;5.97;;
13879;SDS011;7010;48.200;16.332;2023-03-21T00:41:55;5.43;;;5.03;;
13879;SDS011;7010;48.200;16.332;2023-03-21T00:44:23;6.82;;;5.65;;
13879;SDS011;7010;48.200;16.332;2023-03-21T00:46:51;5.90;;;5.30;;
13879;SDS011;7010;48.200;16.332;2023-03-21T00:49:33;6.28;;;5.68;;
13879;SDS011;7010;48.200;16.332;2023-03-21T00:52:04;6.43;;;5.72;;
13879;SDS011;7010;48.200;16.332;2023-03-21T00:54:47;6.13;;;5.53;;
13879;SDS011;7010;48.200;16.332;2023-03-21T00:57:16;5.38;;;4.88;;
13879;SDS011;7010;48.200;16.332;2023-03-21T00:59:47;5.45;;;4.95;;
13879;SDS011;7010;48.200;16.332;2023-03-21T01:02:15;6.43;;;5.47;;
13879;SDS011;7010;48.200;16.332;2023-03-21T01:04:50;5.07;;;4.68;;
13879;SDS011;7010;48.200;16.332;2023-03-21T01:07:18;6.10;;;5.20;;
13879;SDS011;7010;48.200;16.332;2023-03-21T01:09:47;7.22;;;5.22;;
13879;SDS011;7010;48.200;16.332;2023-03-21T01:12:16;5.38;;;4.85;;
13879;SDS011;7010;48.200;16.332;2023-03-21T01:14:44;5.18;;;4.72;;
13879;SDS011;7010;48.200;16.332;2023-03-21T01:17:13;4.28;;;3.90;;
13879;SDS011;7010;48.200;16.332;2023-03-21T01:19:41;5.30;;;4.80;;
13879;SDS011;7010;48.200;16.332;2023-03-21T01:22:19;5.45;;;4.97;;
13879;SDS011;7010;48.200;16.332;2023-03-21T01:24:47;3.95;;;3.55;;
13879;SDS011;7010;48.200;16.332;2023-03-21T01:27:23;4.32;;;3.97;;
13879;SDS011;7010;48.200;16.332;2023-03-21T01:29:51;6.00;;;3.67;;
13879;SDS011;7010;48.200;16.332;2023-03-21T01:32:20;3.47;;;3.17;;
13879;SDS011;7010;48.200;16.332;2023-03-21T01:34:48;3.00;;;2.80;;
13879;SDS011;7010;48.200;16.332;2023-03-21T01:37:17;2.70;;;2.50;;
13879;SDS011;7010;48.200;16.332;2023-03-21T01:39:46;2.70;;;2.50;;
13879;SDS011;7010;48.200;16.332;2023-03-21T01:42:15;2.15;;;2.05;;
13879;SDS011;7010;48.200;16.332;2023-03-21T01:44:53;2.80;;;2.60;;
13879;SDS011;7010;48.200;16.332;2023-03-21T01:47:23;3.55;;;2.63;;
13879;SDS011;7010;48.200;16.332;2023-03-21T01:49:53;2.83;;;2.63;;
13879;SDS011;7010;48.200;16.332;2023-03-21T01:52:26;2.55;;;2.35;;
13879;SDS011;7010;48.200;16.332;2023-03-21T01:55:03;2.15;;;1.98;;
13879;SDS011;7010;48.200;16.332;2023-03-21T01:57:39;3.60;;;2.85;;
13879;SDS011;7010;48.200;16.332;2023-03-21T02:00:23;3.42;;;3.03;;
13879;SDS011;7010;48.200;16.332;2023-03-21T02:02:54;2.92;;;2.72;;
13879;SDS011;7010;48.200;16.332;2023-03-21T02:05:38;2.33;;;2.13;;
13879;SDS011;7010;48.200;16.332;2023-03-21T02:08:17;3.13;;;2.80;;
13879;SDS011;7010;48.200;16.332;2023-03-21T02:10:49;2.83;;;2.63;;
13879;SDS011;7010;48.200;16.332;2023-03-21T02:13:18;2.63;;;2.53;;
13879;SDS011;7010;48.200;16.332;2023-03-21T02:15:48;2.38;;;2.20;;
13879;SDS011;7010;48.200;16.332;2023-03-21T02:18:26;3.67;;;3.38;;
13879;SDS011;7010;48.200;16.332;2023-03-21T02:21:18;2.92;;;2.67;;
13879;SDS011;7010;48.200;16.332;2023-03-21T02:24:24;2.30;;;2.20;;
13879;SDS011;7010;48.200;16.332;2023-03-21T02:27:14;3.22;;;2.88;;
13879;SDS011;7010;48.200;16.332;2023-03-21T02:29:56;4.57;;;2.90;;
13879;SDS011;7010;48.200;16.332;2023-03-21T02:32:57;2.95;;;2.72;;
13879;SDS011;7010;48.200;16.332;2023-03-21T02:35:49;4.22;;;3.55;;
13879;SDS011;7010;48.200;16.332;2023-03-21T02:38:42;2.70;;;2.50;;
13879;SDS011;7010;48.200;16.332;2023-03-21T02:41:20;2.97;;;2.78;;
13879;SDS011;7010;48.200;16.332;2023-03-21T02:44:06;4.25;;;3.13;;
13879;SDS011;7010;48.200;16.332;2023-03-21T02:46:41;3.50;;;3.20;;
13879;SDS011;7010;48.200;16.332;2023-03-21T02:49:30;4.00;;;3.35;;
13879;SDS011;7010;48.200;16.332;2023-03-21T02:52:07;3.00;;;2.78;;
13879;SDS011;7010;48.200;16.332;2023-03-21T02:54:47;3.00;;;2.80;;
13879;SDS011;7010;48.200;16.332;2023-03-21T02:57:17;2.90;;;2.70;;
13879;SDS011;7010;48.200;16.332;2023-03-21T02:59:48;3.05;;;2.85;;
13879;SDS011;7010;48.200;16.332;2023-03-21T03:02:25;3.38;;;3.08;;
13879;SDS011;7010;48.200;16.332;2023-03-21T03:04:56;2.78;;;2.55;;
13879;SDS011;7010;48.200;16.332;2023-03-21T03:07:29;3.85;;;3.50;;
13879;SDS011;7010;48.200;16.332;2023-03-21T03:10:13;3.50;;;3.20;;
13879;SDS011;7010;48.200;16.332;2023-03-21T03:13:00;3.83;;;3.40;;
13879;SDS011;7010;48.200;16.332;2023-03-21T03:15:41;3.88;;;3.25;;
13879;SDS011;7010;48.200;16.332;2023-03-21T03:18:18;3.15;;;2.92;;
13879;SDS011;7010;48.200;16.332;2023-03-21T03:20:56;3.80;;;3.50;;
13879;SDS011;7010;48.200;16.332;2023-03-21T03:23:33;2.90;;;2.70;;
13879;SDS011;7010;48.200;16.332;2023-03-21T03:26:06;3.95;;;3.38;;
13879;SDS011;7010;48.200;16.332;2023-03-21T03:28:40;4.00;;;3.58;;
13879;SDS011;7010;48.200;16.332;2023-03-21T03:31:13;3.67;;;3.38;;
13879;SDS011;7010;48.200;16.332;2023-03-21T03:33:48;4.05;;;3.58;;
13879;SDS011;7010;48.200;16.332;2023-03-21T03:36:18;5.80;;;3.75;;
13879;SDS011;7010;48.200;16.332;2023-03-21T03:38:58;6.50;;;4.50;;
13879;SDS011;7010;48.200;16.332;2023-03-21T03:41:32;4.40;;;4.05;;
13879;SDS011;7010;48.200;16.332;2023-03-21T03:44:24;4.60;;;4.20;;
13879;SDS011;7010;48.200;16.332;2023-03-21T03:46:55;10.65;;;3.88;;
13879;SDS011;7010;48.200;16.332;2023-03-21T03:49:28;5.20;;;4.70;;
13879;SDS011;7010;48.200;16.332;2023-03-21T03:52:00;5.13;;;4.07;;
13879;SDS011;7010;48.200;16.332;2023-03-21T03:54:35;4.05;;;3.75;;
13879;SDS011;7010;48.200;16.332;2023-03-21T03:57:08;5.18;;;4.68;;
13879;SDS011;7010;48.200;16.332;2023-03-21T03:59:38;4.28;;;3.83;;
13879;SDS011;7010;48.200;16.332;2023-03-21T04:02:07;5.03;;;4.53;;
13879;SDS011;7010;48.200;16.332;2023-03-21T04:04:36;4.30;;;4.00;;
13879;SDS011;7010;48.200;16.332;2023-03-21T04:07:04;4.72;;;4.30;;
13879;SDS011;7010;48.200;16.332;2023-03-21T04:09:33;4.78;;;4.38;;
13879;SDS011;7010;48.200;16.332;2023-03-21T04:12:11;5.47;;;4.97;;
13879;SDS011;7010;48.200;16.332;2023-03-21T04:14:40;5.03;;;4.50;;
13879;SDS011;7010;48.200;16.332;2023-03-21T04:17:12;4.45;;;4.03;;
13879;SDS011;7010;48.200;16.332;2023-03-21T04:19:41;4.13;;;3.80;;
13879;SDS011;7010;48.200;16.332;2023-03-21T04:22:10;4.15;;;3.85;;
13879;SDS011;7010;48.200;16.332;2023-03-21T04:24:39;4.63;;;4.22;;
13879;SDS011;7010;48.200;16.332;2023-03-21T04:27:08;4.53;;;4.07;;
13879;SDS011;7010;48.200;16.332;2023-03-21T04:29:38;4.72;;;4.32;;
13879;SDS011;7010;48.200;16.332;2023-03-21T04:32:06;5.18;;;4.78;;
13879;SDS011;7010;48.200;16.332;2023-03-21T04:34:42;3.70;;;3.47;;
13879;SDS011;7010;48.200;16.332;2023-03-21T04:37:15;6.00;;;3.92;;
13879;SDS011;7010;48.200;16.332;2023-03-21T04:39:44;4.10;;;3.70;;
13879;SDS011;7010;48.200;16.332;2023-03-21T04:42:13;4.28;;;3.97;;
13879;SDS011;7010;48.200;16.332;2023-03-21T04:44:45;4.38;;;3.97;;
13879;SDS011;7010;48.200;16.332;2023-03-21T04:47:14;5.15;;;4.65;;
13879;SDS011;7010;48.200;16.332;2023-03-21T04:49:45;5.45;;;4.47;;
13879;SDS011;7010;48.200;16.332;2023-03-21T04:52:14;4.00;;;3.70;;
13879;SDS011;7010;48.200;16.332;2023-03-21T04:54:43;3.80;;;3.50;;
13879;SDS011;7010;48.200;16.332;2023-03-21T04:57:11;4.60;;;4.20;;
13879;SDS011;7010;48.200;16.332;2023-03-21T04:59:40;3.88;;;3.58;;
13879;SDS011;7010;48.200;16.332;2023-03-21T05:02:10;4.13;;;3.83;;
13879;SDS011;7010;48.200;16.332;2023-03-21T05:04:38;4.50;;;4.10;;
13879;SDS011;7010;48.200;16.332;2023-03-21T05:07:07;4.47;;;4.10;;
13879;SDS011;7010;48.200;16.332;2023-03-21T05:09:35;5.47;;;4.97;;
13879;SDS011;7010;48.200;16.332;2023-03-21T05:12:04;7.53;;;4.45;;
13879;SDS011;7010;48.200;16.332;2023-03-21T05:14:33;4.20;;;3.90;;
13879;SDS011;7010;48.200;16.332;2023-03-21T05:17:01;5.78;;;5.20;;
13879;SDS011;7010;48.200;16.332;2023-03-21T05:19:32;4.38;;;3.97;;
13879;SDS011;7010;48.200;16.332;2023-03-21T05:22:06;4.78;;;4.38;;
13879;SDS011;7010;48.200;16.332;2023-03-21T05:24:37;4.22;;;3.83;;
13879;SDS011;7010;48.200;16.332;2023-03-21T05:27:07;4.22;;;3.85;;
13879;SDS011;7010;48.200;16.332;2023-03-21T05:29:35;4.22;;;3.67;;
13879;SDS011;7010;48.200;16.332;2023-03-21T05:32:04;3.97;;;3.67;;
13879;SDS011;7010;48.200;16.332;2023-03-21T05:34:34;4.20;;;3.80;;
13879;SDS011;7010;48.200;16.332;2023-03-21T05:37:02;6.60;;;4.68;;
13879;SDS011;7010;48.200;16.332;2023-03-21T05:39:30;5.60;;;5.03;;
13879;SDS011;7010;48.200;16.332;2023-03-21T05:41:59;5.30;;;4.85;;
13879;SDS011;7010;48.200;16.332;2023-03-21T05:44:27;4.43;;;4.10;;
13879;SDS011;7010;48.200;16.332;2023-03-21T05:46:55;4.38;;;3.97;;
13879;SDS011;7010;48.200;16.332;2023-03-21T05:49:24;5.97;;;4.90;;
13879;SDS011;7010;48.200;16.332;2023-03-21T05:51:53;4.75;;;4.35;;
13879;SDS011;7010;48.200;16.332;2023-03-21T05:54:22;5.15;;;4.65;;
13879;SDS011;7010;48.200;16.332;2023-03-21T05:56:50;5.07;;;4.68;;
13879;SDS011;7010;48.200;16.332;2023-03-21T05:59:18;5.88;;;5.35;;
13879;SDS011;7010;48.200;16.332;2023-03-21T06:01:47;4.50;;;4.20;;
13879;SDS011;7010;48.200;16.332;2023-03-21T06:04:15;4.53;;;4.13;;
13879;SDS011;7010;48.200;16.332;2023-03-21T06:06:46;5.65;;;5.05;;
13879;SDS011;7010;48.200;16.332;2023-03-21T06:09:17;4.35;;;3.95;;
13879;SDS011;7010;48.200;16.332;2023-03-21T06:11:46;6.68;;;5.47;;
13879;SDS011;7010;48.200;16.332;2023-03-21T06:14:16;5.47;;;4.97;;
13879;SDS011;7010;48.200;16.332;2023-03-21T06:16:44;5.28;;;4.80;;
13879;SDS011;7010;48.200;16.332;2023-03-21T06:19:13;9.48;;;6.22;;
13879;SDS011;7010;48.200;16.332;2023-03-21T06:21:41;8.18;;;5.20;;
13879;SDS011;7010;48.200;16.332;2023-03-21T06:24:10;5.07;;;4.45;;
13879;SDS011;7010;48.200;16.332;2023-03-21T06:26:40;4.70;;;4.30;;
13879;SDS011;7010;48.200;16.332;2023-03-21T06:29:09;5.53;;;5.03;;
13879;SDS011;7010;48.200;16.332;2023-03-21T06:31:40;14.40;;;5.22;;
13879;SDS011;7010;48.200;16.332;2023-03-21T06:34:09;5.03;;;4.50;;
13879;SDS011;7010;48.200;16.332;2023-03-21T06:36:37;5.45;;;4.47;;
13879;SDS011;7010;48.200;16.332;2023-03-21T06:39:06;4.78;;;4.38;;
13879;SDS011;7010;48.200;16.332;2023-03-21T06:41:35;4.75;;;4.35;;
13879;SDS011;7010;48.200;16.332;2023-03-21T06:44:06;8.30;;;5.68;;
13879;SDS011;7010;48.200;16.332;2023-03-21T06:46:34;4.65;;;4.22;;
13879;SDS011;7010;48.200;16.332;2023-03-21T06:49:02;6.18;;;5.15;;
13879;SDS011;7010;48.200;16.332;2023-03-21T06:51:31;4.50;;;4.10;;
13879;SDS011;7010;48.200;16.332;2023-03-21T06:53:59;4.45;;;4.05;;
13879;SDS011;7010;48.200;16.332;2023-03-21T06:56:27;4.97;;;4.57;;
13879;SDS011;7010;48.200;16.332;2023-03-21T06:58:56;4.60;;;4.20;;
13879;SDS011;7010;48.200;16.332;2023-03-21T07:01:25;4.50;;;4.10;;
13879;SDS011;7010;48.200;16.332;2023-03-21T07:03:55;8.27;;;4.47;;
13879;SDS011;7010;48.200;16.332;2023-03-21T07:06:25;4.40;;;4.03;;
13879;SDS011;7010;48.200;16.332;2023-03-21T07:08:54;4.57;;;4.07;;
13879;SDS011;7010;48.200;16.332;2023-03-21T07:11:23;10.25;;;4.07;;
13879;SDS011;7010;48.200;16.332;2023-03-21T07:13:52;5.25;;;3.95;;
13879;SDS011;7010;48.200;16.332;2023-03-21T07:16:20;4.25;;;3.88;;
13879;SDS011;7010;48.200;16.332;2023-03-21T07:18:51;3.88;;;3.58;;
13879;SDS011;7010;48.200;16.332;2023-03-21T07:21:20;6.82;;;3.97;;
13879;SDS011;7010;48.200;16.332;2023-03-21T07:23:48;4.53;;;4.13;;
13879;SDS011;7010;48.200;16.332;2023-03-21T07:26:16;4.75;;;3.70;;
13879;SDS011;7010;48.200;16.332;2023-03-21T07:28:45;4.03;;;3.55;;
13879;SDS011;7010;48.200;16.332;2023-03-21T07:31:14;3.42;;;3.20;;
13879;SDS011;7010;48.200;16.332;2023-03-21T07:33:45;3.20;;;3.00;;
13879;SDS011;7010;48.200;16.332;2023-03-21T07:36:14;3.78;;;3.40;;
13879;SDS011;7010;48.200;16.332;2023-03-21T07:38:43;4.10;;;3.70;;
13879;SDS011;7010;48.200;16.332;2023-03-21T07:41:12;4.22;;;3.30;;
13879;SDS011;7010;48.200;16.332;2023-03-21T07:43:41;3.55;;;3.10;;
13879;SDS011;7010;48.200;16.332;2023-03-21T07:46:09;3.67;;;3.40;;
13879;SDS011;7010;48.200;16.332;2023-03-21T07:48:38;4.40;;;3.97;;
13879;SDS011;7010;48.200;16.332;2023-03-21T07:51:06;3.03;;;2.83;;
13879;SDS011;7010;48.200;16.332;2023-03-21T07:53:36;4.43;;;3.03;;
13879;SDS011;7010;48.200;16.332;2023-03-21T07:56:07;2.97;;;2.78;;
13879;SDS011;7010;48.200;16.332;2023-03-21T07:58:36;3.15;;;2.95;;
13879;SDS011;7010;48.200;16.332;2023-03-21T08:01:04;4.07;;;3.67;;
13879;SDS011;7010;48.200;16.332;2023-03-21T08:03:33;4.38;;;4.00;;
13879;SDS011;7010;48.200;16.332;2023-03-21T08:06:01;3.05;;;2.75;;
13879;SDS011;7010;48.200;16.332;2023-03-21T08:08:29;3.35;;;3.05;;
13879;SDS011;7010;48.200;16.332;2023-03-21T08:11:00;3.28;;;2.97;;
13879;SDS011;7010;48.200;16.332;2023-03-21T08:13:30;3.70;;;3.40;;
13879;SDS011;7010;48.200;16.332;2023-03-21T08:15:58;3.13;;;2.92;;
13879;SDS011;7010;48.200;16.332;2023-03-21T08:18:27;3.65;;;3.35;;
13879;SDS011;7010;48.200;16.332;2023-03-21T08:20:56;3.38;;;3.08;;
13879;SDS011;7010;48.200;16.332;2023-03-21T08:23:25;3.85;;;3.50;;
13879;SDS011;7010;48.200;16.332;2023-03-21T08:25:53;3.80;;;3.50;;
13879;SDS011;7010;48.200;16.332;2023-03-21T08:28:23;5.38;;;3.13;;
13879;SDS011;7010;48.200;16.332;2023-03-21T08:30:51;3.05;;;2.85;;
13879;SDS011;7010;48.200;16.332;2023-03-21T08:33:20;4.10;;;3.38;;
13879;SDS011;7010;48.200;16.332;2023-03-21T08:35:48;4.90;;;4.50;;
13879;SDS011;7010;48.200;16.332;2023-03-21T08:38:16;3.65;;;3.35;;
13879;SDS011;7010;48.200;16.332;2023-03-21T08:40:45;4.07;;;3.72;;
13879;SDS011;7010;48.200;16.332;2023-03-21T08:43:15;4.63;;;3.15;;
13879;SDS011;7010;48.200;16.332;2023-03-21T08:45:44;4.25;;;3.85;;
13879;SDS011;7010;48.200;16.332;2023-03-21T08:48:13;4.95;;;3.50;;
13879;SDS011;7010;48.200;16.332;2023-03-21T08:50:41;3.92;;;3.63;;
13879;SDS011;7010;48.200;16.332;2023-03-21T08:53:12;4.35;;;3.92;;
13879;SDS011;7010;48.200;16.332;2023-03-21T08:55:42;3.95;;;3.55;;
13879;SDS011;7010;48.200;16.332;2023-03-21T08:58:10;3.83;;;3.53;;
13879;SDS011;7010;48.200;16.332;2023-03-21T09:00:39;4.60;;;4.03;;
13879;SDS011;7010;48.200;16.332;2023-03-21T09:03:08;4.20;;;3.90;;
13879;SDS011;7010;48.200;16.332;2023-03-21T09:05:37;4.10;;;3.70;;
13879;SDS011;7010;48.200;16.332;2023-03-21T09:08:05;4.70;;;4.30;;
13879;SDS011;7010;48.200;16.332;2023-03-21T09:10:33;4.13;;;3.72;;
13879;SDS011;7010;48.200;16.332;2023-03-21T09:13:02;4.22;;;3.83;;
13879;SDS011;7010;48.200;16.332;2023-03-21T09:15:30;5.18;;;4.28;;
13879;SDS011;7010;48.200;16.332;2023-03-21T09:18:00;3.90;;;3.60;;
13879;SDS011;7010;48.200;16.332;2023-03-21T09:20:40;4.07;;;3.65;;
13879;SDS011;7010;48.200;16.332;2023-03-21T09:23:10;3.90;;;3.45;;
13879;SDS011;7010;48.200;16.332;2023-03-21T09:25:39;4.18;;;3.78;;
13879;SDS011;7010;48.200;16.332;2023-03-21T09:28:09;5.57;;;3.50;;
13879;SDS011;7010;48.200;16.332;2023-03-21T09:30:41;4.28;;;3.17;;
13879;SDS011;7010;48.200;16.332;2023-03-21T09:33:10;4.07;;;3.67;;
13879;SDS011;7010;48.200;16.332;2023-03-21T09:35:48;3.42;;;3.17;;
13879;SDS011;7010;48.200;16.332;2023-03-21T09:38:17;4.23;;;3.67;;
13879;SDS011;7010;48.200;16.332;2023-03-21T09:58:51;3.67;;;3.38;;
13879;SDS011;7010;48.200;16.332;2023-03-21T10:01:25;8.13;;;3.28;;
13879;SDS011;7010;48.200;16.332;2023-03-21T10:24:30;3.15;;;2.95;;
13879;SDS011;7010;48.200;16.332;2023-03-21T10:29:31;3.40;;;3.10;;
13879;SDS011;7010;48.200;16.332;2023-03-21T10:32:08;3.15;;;2.85;;
13879;SDS011;7010;48.200;16.332;2023-03-21T10:34:39;3.58;;;3.28;;
13879;SDS011;7010;48.200;16.332;2023-03-21T10:37:10;3.38;;;3.08;;
13879;SDS011;7010;48.200;16.332;2023-03-21T10:39:39;4.45;;;3.78;;
13879;SDS011;7010;48.200;16.332;2023-03-21T10:42:11;3.83;;;3.47;;
13879;SDS011;7010;48.200;16.332;2023-03-21T18:23:17;4.50;;;4.10;;
13879;SDS011;7010;48.200;16.332;2023-03-21T18:33:35;4.70;;;4.30;;
13879;SDS011;7010;48.200;16.332;2023-03-21T18:36:06;11.90;;;5.70;;
13879;SDS011;7010;48.200;16.332;2023-03-21T18:38:35;4.32;;;3.95;;
13879;SDS011;7010;48.200;16.332;2023-03-21T18:41:05;6.70;;;4.60;;
13879;SDS011;7010;48.200;16.332;2023-03-21T18:43:35;6.20;;;4.63;;
13879;SDS011;7010;48.200;16.332;2023-03-21T18:46:24;6.70;;;5.10;;
13879;SDS011;7010;48.200;16.332;2023-03-21T18:48:52;11.25;;;5.75;;
13879;SDS011;7010;48.200;16.332;2023-03-21T18:51:21;11.60;;;7.85;;
13879;SDS011;7010;48.200;16.332;2023-03-21T18:53:49;12.88;;;7.32;;
13879;SDS011;7010;48.200;16.332;2023-03-21T18:56:19;8.95;;;6.28;;
13879;SDS011;7010;48.200;16.332;2023-03-21T18:59:10;17.02;;;10.18;;
13879;SDS011;7010;48.200;16.332;2023-03-21T19:01:39;15.77;;;9.18;;
13879;SDS011;7010;48.200;16.332;2023-03-21T19:04:07;11.60;;;8.02;;
13879;SDS011;7010;48.200;16.332;2023-03-21T19:06:53;6.47;;;5.50;;
13879;SDS011;7010;48.200;16.332;2023-03-21T19:09:23;8.45;;;4.90;;
13879;SDS011;7010;48.200;16.332;2023-03-21T19:11:58;7.25;;;5.60;;
13879;SDS011;7010;48.200;16.332;2023-03-21T19:14:27;5.90;;;5.03;;
13879;SDS011;7010;48.200;16.332;2023-03-21T19:16:56;11.15;;;6.30;;
13879;SDS011;7010;48.200;16.332;2023-03-21T19:19:45;6.82;;;5.90;;
13879;SDS011;7010;48.200;16.332;2023-03-21T19:22:13;8.45;;;6.45;;
13879;SDS011;7010;48.200;16.332;2023-03-21T19:24:42;8.23;;;5.38;;
13879;SDS011;7010;48.200;16.332;2023-03-21T19:27:13;7.65;;;5.15;;
13879;SDS011;7010;48.200;16.332;2023-03-21T19:29:45;5.28;;;4.78;;
13879;SDS011;7010;48.200;16.332;2023-03-21T19:32:33;4.97;;;3.63;;
13879;SDS011;7010;48.200;16.332;2023-03-21T19:35:01;4.63;;;4.28;;
13879;SDS011;7010;48.200;16.332;2023-03-21T19:37:30;8.98;;;5.35;;
13879;SDS011;7010;48.200;16.332;2023-03-21T19:40:00;6.00;;;5.35;;
13879;SDS011;7010;48.200;16.332;2023-03-21T19:42:33;5.72;;;5.20;;
13879;SDS011;7010;48.200;16.332;2023-03-21T19:45:02;10.02;;;6.45;;
13879;SDS011;7010;48.200;16.332;2023-03-21T19:47:31;9.93;;;7.55;;
13879;SDS011;7010;48.200;16.332;2023-03-21T19:49:59;7.32;;;6.25;;
13879;SDS011;7010;48.200;16.332;2023-03-21T19:52:48;6.95;;;5.88;;
13879;SDS011;7010;48.200;16.332;2023-03-21T19:55:16;9.05;;;6.30;;
13879;SDS011;7010;48.200;16.332;2023-03-21T19:57:46;8.00;;;5.78;;
13879;SDS011;7010;48.200;16.332;2023-03-21T20:00:15;6.40;;;5.38;;
13879;SDS011;7010;48.200;16.332;2023-03-21T20:02:44;6.40;;;5.43;;
13879;SDS011;7010;48.200;16.332;2023-03-21T20:05:13;5.93;;;5.35;;
13879;SDS011;7010;48.200;16.332;2023-03-21T20:07:43;5.22;;;4.72;;
13879;SDS011;7010;48.200;16.332;2023-03-21T20:10:11;6.47;;;4.75;;
13879;SDS011;7010;48.200;16.332;2023-03-21T20:12:39;6.07;;;4.43;;
13879;SDS011;7010;48.200;16.332;2023-03-21T20:15:10;5.75;;;3.80;;
13879;SDS011;7010;48.200;16.332;2023-03-21T20:17:46;4.13;;;3.70;;
13879;SDS011;7010;48.200;16.332;2023-03-21T20:20:14;4.07;;;3.70;;
13879;SDS011;7010;48.200;16.332;2023-03-21T20:22:44;3.05;;;2.78;;
13879;SDS011;7010;48.200;16.332;2023-03-21T20:25:33;2.95;;;2.75;;
13879;SDS011;7010;48.200;16.332;2023-03-21T20:28:02;2.85;;;2.65;;
13879;SDS011;7010;48.200;16.332;2023-03-21T20:30:47;3.50;;;2.97;;
13879;SDS011;7010;48.200;16.332;2023-03-21T20:33:18;5.35;;;2.92;;
13879;SDS011;7010;48.200;16.332;2023-03-21T20:35:47;2.30;;;2.10;;
13879;SDS011;7010;48.200;16.332;2023-03-21T20:38:36;2.22;;;2.03;;
13879;SDS011;7010;48.200;16.332;2023-03-21T20:41:05;2.75;;;2.55;;
13879;SDS011;7010;48.200;16.332;2023-03-21T20:43:33;5.40;;;2.92;;
13879;SDS011;7010;48.200;16.332;2023-03-21T20:46:23;2.50;;;2.30;;
13879;SDS011;7010;48.200;16.332;2023-03-21T20:48:51;3.17;;;2.88;;
13879;SDS011;7010;48.200;16.332;2023-03-21T20:51:20;3.28;;;2.75;;
13879;SDS011;7010;48.200;16.332;2023-03-21T20:54:09;3.38;;;3.05;;
13879;SDS011;7010;48.200;16.332;2023-03-21T20:56:38;3.28;;;2.97;;
13879;SDS011;7010;48.200;16.332;2023-03-21T20:59:06;3.67;;;3.17;;
13879;SDS011;7010;48.200;16.332;2023-03-21T21:01:52;3.00;;;2.70;;
13879;SDS011;7010;48.200;16.332;2023-03-21T21:04:21;3.35;;;3.05;;
13879;SDS011;7010;48.200;16.332;2023-03-21T21:07:10;4.30;;;3.88;;
13879;SDS011;7010;48.200;16.332;2023-03-21T21:09:41;4.45;;;3.78;;
13879;SDS011;7010;48.200;16.332;2023-03-21T21:12:10;4.28;;;3.88;;
13879;SDS011;7010;48.200;16.332;2023-03-21T21:14:39;4.63;;;4.22;;
13879;SDS011;7010;48.200;16.332;2023-03-21T21:17:10;5.03;;;3.97;;
13879;SDS011;7010;48.200;16.332;2023-03-21T21:19:59;4.57;;;4.13;;
13879;SDS011;7010;48.200;16.332;2023-03-21T21:22:28;4.18;;;3.80;;
13879;SDS011;7010;48.200;16.332;2023-03-21T21:24:57;3.90;;;3.58;;
13879;SDS011;7010;48.200;16.332;2023-03-21T21:27:25;6.50;;;3.67;;
13879;SDS011;7010;48.200;16.332;2023-03-21T21:29:53;4.70;;;4.05;;
13879;SDS011;7010;48.200;16.332;2023-03-21T21:32:24;3.70;;;3.40;;
13879;SDS011;7010;48.200;16.332;2023-03-21T21:34:52;4.93;;;3.67;;
13879;SDS011;7010;48.200;16.332;2023-03-21T21:37:21;5.32;;;3.97;;
13879;SDS011;7010;48.200;16.332;2023-03-21T21:39:50;3.35;;;3.05;;
13879;SDS011;7010;48.200;16.332;2023-03-21T21:42:19;4.35;;;3.60;;
13879;SDS011;7010;48.200;16.332;2023-03-21T21:44:47;5.35;;;3.55;;
13879;SDS011;7010;48.200;16.332;2023-03-21T21:47:15;5.40;;;3.80;;
13879;SDS011;7010;48.200;16.332;2023-03-21T21:49:45;4.10;;;3.78;;
13879;SDS011;7010;48.200;16.332;2023-03-21T21:52:14;3.30;;;3.10;;
13879;SDS011;7010;48.200;16.332;2023-03-21T21:54:47;4.97;;;3.75;;
13879;SDS011;7010;48.200;16.332;2023-03-21T21:57:15;4.05;;;3.65;;
13879;SDS011;7010;48.200;16.332;2023-03-21T21:59:45;3.47;;;3.17;;
13879;SDS011;7010;48.200;16.332;2023-03-21T22:02:13;5.70;;;4.15;;
13879;SDS011;7010;48.200;16.332;2023-03-21T22:04:42;3.90;;;3.50;;
13879;SDS011;7010;48.200;16.332;2023-03-21T22:07:11;4.22;;;3.83;;
13879;SDS011;7010;48.200;16.332;2023-03-21T22:09:40;3.90;;;3.60;;
13879;SDS011;7010;48.200;16.332;2023-03-21T22:12:09;5.70;;;3.97;;
13879;SDS011;7010;48.200;16.332;2023-03-21T22:14:38;3.50;;;3.20;;
13879;SDS011;7010;48.200;16.332;2023-03-21T22:17:06;3.45;;;3.15;;
13879;SDS011;7010;48.200;16.332;2023-03-21T22:19:35;3.75;;;3.20;;
13879;SDS011;7010;48.200;16.332;2023-03-21T22:22:05;4.05;;;3.65;;
13879;SDS011;7010;48.200;16.332;2023-03-21T22:24:35;4.40;;;3.88;;
13879;SDS011;7010;48.200;16.332;2023-03-21T22:27:03;3.30;;;3.00;;
13879;SDS011;7010;48.200;16.332;2023-03-21T22:29:31;4.80;;;3.83;;
13879;SDS011;7010;48.200;16.332;2023-03-21T22:32:00;4.03;;;3.38;;
13879;SDS011;7010;48.200;16.332;2023-03-21T22:34:28;3.75;;;3.45;;
13879;SDS011;7010;48.200;16.332;2023-03-21T22:36:56;4.75;;;3.53;;
13879;SDS011;7010;48.200;16.332;2023-03-21T22:39:25;3.15;;;2.95;;
13879;SDS011;7010;48.200;16.332;2023-03-21T22:41:55;3.78;;;3.42;;
13879;SDS011;7010;48.200;16.332;2023-03-21T22:44:26;3.65;;;3.35;;
13879;SDS011;7010;48.200;16.332;2023-03-21T22:47:00;5.55;;;4.40;;
13879;SDS011;7010;48.200;16.332;2023-03-21T22:49:28;4.53;;;4.13;;
13879;SDS011;7010;48.200;16.332;2023-03-21T22:51:57;6.88;;;4.80;;
13879;SDS011;7010;48.200;16.332;2023-03-21T22:54:26;8.25;;;4.50;;
13879;SDS011;7010;48.200;16.332;2023-03-21T22:56:56;4.25;;;3.88;;
13879;SDS011;7010;48.200;16.332;2023-03-21T22:59:25;6.57;;;5.32;;
13879;SDS011;7010;48.200;16.332;2023-03-21T23:01:54;8.35;;;4.63;;
13879;SDS011;7010;48.200;16.332;2023-03-21T23:04:23;6.95;;;5.22;;
13879;SDS011;7010;48.200;16.332;2023-03-21T23:06:52;10.48;;;4.93;;
13879;SDS011;7010;48.200;16.332;2023-03-21T23:09:21;5.15;;;4.75;;
13879;SDS011;7010;48.200;16.332;2023-03-21T23:11:49;6.65;;;5.15;;
13879;SDS011;7010;48.200;16.332;2023-03-21T23:14:19;7.15;;;4.15;;
13879;SDS011;7010;48.200;16.332;2023-03-21T23:16:48;6.15;;;4.78;;
13879;SDS011;7010;48.200;16.332;2023-03-21T23:19:19;5.40;;;4.75;;
13879;SDS011;7010;48.200;16.332;2023-03-21T23:21:50;4.25;;;3.90;;
13879;SDS011;7010;48.200;16.332;2023-03-21T23:24:19;4.75;;;4.35;;
13879;SDS011;7010;48.200;16.332;2023-03-21T23:26:47;5.95;;;4.75;;
13879;SDS011;7010;48.200;16.332;2023-03-21T23:29:15;4.35;;;3.95;;
13879;SDS011;7010;48.200;16.332;2023-03-21T23:31:45;4.07;;;3.67;;
13879;SDS011;7010;48.200;16.332;2023-03-21T23:34:15;4.00;;;3.60;;
13879;SDS011;7010;48.200;16.332;2023-03-21T23:36:46;3.85;;;3.53;;
13879;SDS011;7010;48.200;16.332;2023-03-21T23:39:14;3.90;;;3.50;;
13879;SDS011;7010;48.200;16.332;2023-03-21T23:41:44;3.63;;;3.40;;